KMZG

Mustang Island A85a

Mustang Island A85a, Texas, USA
METAR KMZG 220455Z AUTO 22004G11KT 10SM CLR 28/28 A2991 RMK A01
Observed Flight Rules
Jun-22 @ 04:55 UTC (42 minutes ago) Visual Flight Rules
Wind Visibility Clouds
220° at 4 knots
 Gusting to 11 knots
10 miles
  • Clear skies
Temperatures Readings
Current 28°C / 82°F
Dewpoint 28°C / 82°F
Humidity 100%
Altimeter 29.91" Hg
Pressure 1013 hPa
Elevation 29
METAR KMZG 220455Z AUTO 22004G11KT 10SM CLR 28/28 A2991 RMK A01
Observed Flight Rules
Jun-22 @ 04:55 UTC
(42 minutes ago)
VFR
Wind Visibility
220° at 4 knots
 Gusting to 11 knots
10 miles
Clouds
  • Clear skies
Temperature Dewpoint
28°C / 82°F 28°C / 82°F
Humidity Altimeter Pressure
100% 29.91" Hg 1013 hPa